sensor_id;sensor_type;location;lat;lon;timestamp;P1;durP1;ratioP1;P2;durP2;ratioP2
29906;SDS011;16776;50.958;10.994;2023-05-07T00:02:12;7.65;;;5.60;;
29906;SDS011;16776;50.958;10.994;2023-05-07T00:04:39;7.63;;;5.68;;
29906;SDS011;16776;50.958;10.994;2023-05-07T00:07:05;8.65;;;5.78;;
29906;SDS011;16776;50.958;10.994;2023-05-07T00:09:32;9.25;;;6.35;;
29906;SDS011;16776;50.958;10.994;2023-05-07T00:11:59;10.20;;;5.65;;
29906;SDS011;16776;50.958;10.994;2023-05-07T00:14:26;8.35;;;5.97;;
29906;SDS011;16776;50.958;10.994;2023-05-07T00:16:53;7.80;;;5.82;;
29906;SDS011;16776;50.958;10.994;2023-05-07T00:19:20;10.65;;;6.85;;
29906;SDS011;16776;50.958;10.994;2023-05-07T00:21:46;8.75;;;6.05;;
29906;SDS011;16776;50.958;10.994;2023-05-07T00:24:13;11.40;;;6.88;;
29906;SDS011;16776;50.958;10.994;2023-05-07T00:26:39;11.05;;;7.53;;
29906;SDS011;16776;50.958;10.994;2023-05-07T00:29:06;8.98;;;6.75;;
29906;SDS011;16776;50.958;10.994;2023-05-07T00:31:34;10.85;;;7.57;;
29906;SDS011;16776;50.958;10.994;2023-05-07T00:34:00;9.63;;;6.47;;
29906;SDS011;16776;50.958;10.994;2023-05-07T00:36:27;10.35;;;6.75;;
29906;SDS011;16776;50.958;10.994;2023-05-07T00:38:56;12.93;;;6.10;;
29906;SDS011;16776;50.958;10.994;2023-05-07T00:41:25;9.32;;;5.88;;
29906;SDS011;16776;50.958;10.994;2023-05-07T00:43:51;11.93;;;6.10;;
29906;SDS011;16776;50.958;10.994;2023-05-07T00:46:18;9.50;;;6.00;;
29906;SDS011;16776;50.958;10.994;2023-05-07T00:48:48;9.98;;;6.70;;
29906;SDS011;16776;50.958;10.994;2023-05-07T00:51:16;11.23;;;6.72;;
29906;SDS011;16776;50.958;10.994;2023-05-07T00:53:44;11.43;;;7.22;;
29906;SDS011;16776;50.958;10.994;2023-05-07T00:56:12;9.15;;;6.20;;
29906;SDS011;16776;50.958;10.994;2023-05-07T00:58:39;11.77;;;7.85;;
29906;SDS011;16776;50.958;10.994;2023-05-07T01:01:06;10.23;;;6.60;;
29906;SDS011;16776;50.958;10.994;2023-05-07T01:03:33;9.73;;;5.78;;
29906;SDS011;16776;50.958;10.994;2023-05-07T01:06:01;10.02;;;6.60;;
29906;SDS011;16776;50.958;10.994;2023-05-07T01:08:29;11.68;;;6.75;;
29906;SDS011;16776;50.958;10.994;2023-05-07T01:10:57;10.80;;;6.40;;
29906;SDS011;16776;50.958;10.994;2023-05-07T01:13:25;10.63;;;6.85;;
29906;SDS011;16776;50.958;10.994;2023-05-07T01:15:53;9.65;;;5.93;;
29906;SDS011;16776;50.958;10.994;2023-05-07T01:18:20;9.80;;;6.85;;
29906;SDS011;16776;50.958;10.994;2023-05-07T01:20:47;10.15;;;6.70;;
29906;SDS011;16776;50.958;10.994;2023-05-07T01:23:15;11.82;;;7.03;;
29906;SDS011;16776;50.958;10.994;2023-05-07T01:25:41;10.05;;;6.47;;
29906;SDS011;16776;50.958;10.994;2023-05-07T01:28:08;9.90;;;6.05;;
29906;SDS011;16776;50.958;10.994;2023-05-07T01:30:34;12.32;;;7.38;;
29906;SDS011;16776;50.958;10.994;2023-05-07T01:33:04;11.45;;;7.45;;
29906;SDS011;16776;50.958;10.994;2023-05-07T01:35:35;9.85;;;6.47;;
29906;SDS011;16776;50.958;10.994;2023-05-07T01:38:04;13.48;;;7.43;;
29906;SDS011;16776;50.958;10.994;2023-05-07T01:40:33;13.65;;;7.85;;
29906;SDS011;16776;50.958;10.994;2023-05-07T01:43:00;11.07;;;7.18;;
29906;SDS011;16776;50.958;10.994;2023-05-07T01:45:28;10.63;;;6.78;;
29906;SDS011;16776;50.958;10.994;2023-05-07T01:47:54;11.25;;;6.88;;
29906;SDS011;16776;50.958;10.994;2023-05-07T01:50:21;14.50;;;7.80;;
29906;SDS011;16776;50.958;10.994;2023-05-07T01:52:49;13.32;;;7.97;;
29906;SDS011;16776;50.958;10.994;2023-05-07T01:55:17;10.20;;;6.30;;
29906;SDS011;16776;50.958;10.994;2023-05-07T01:57:45;12.02;;;7.38;;
29906;SDS011;16776;50.958;10.994;2023-05-07T02:00:11;10.90;;;7.60;;
29906;SDS011;16776;50.958;10.994;2023-05-07T02:02:38;12.38;;;7.10;;
29906;SDS011;16776;50.958;10.994;2023-05-07T02:05:05;10.35;;;6.85;;
29906;SDS011;16776;50.958;10.994;2023-05-07T02:07:32;10.48;;;6.55;;
29906;SDS011;16776;50.958;10.994;2023-05-07T02:09:59;11.50;;;6.93;;
29906;SDS011;16776;50.958;10.994;2023-05-07T02:12:25;12.63;;;8.02;;
29906;SDS011;16776;50.958;10.994;2023-05-07T02:14:53;11.27;;;6.72;;
29906;SDS011;16776;50.958;10.994;2023-05-07T02:17:20;12.32;;;6.95;;
29906;SDS011;16776;50.958;10.994;2023-05-07T02:19:47;12.65;;;7.97;;
29906;SDS011;16776;50.958;10.994;2023-05-07T02:22:13;10.40;;;6.30;;
29906;SDS011;16776;50.958;10.994;2023-05-07T02:24:40;11.73;;;7.15;;
29906;SDS011;16776;50.958;10.994;2023-05-07T02:27:07;11.10;;;6.38;;
29906;SDS011;16776;50.958;10.994;2023-05-07T02:29:33;9.55;;;5.82;;
29906;SDS011;16776;50.958;10.994;2023-05-07T02:32:01;9.10;;;5.63;;
29906;SDS011;16776;50.958;10.994;2023-05-07T02:34:30;9.15;;;6.72;;
29906;SDS011;16776;50.958;10.994;2023-05-07T02:36:57;10.70;;;6.40;;
29906;SDS011;16776;50.958;10.994;2023-05-07T02:39:23;11.55;;;7.38;;
29906;SDS011;16776;50.958;10.994;2023-05-07T02:41:50;11.43;;;6.57;;
29906;SDS011;16776;50.958;10.994;2023-05-07T02:44:16;9.05;;;6.60;;
29906;SDS011;16776;50.958;10.994;2023-05-07T02:46:43;10.57;;;7.07;;
29906;SDS011;16776;50.958;10.994;2023-05-07T02:49:11;12.60;;;6.65;;
29906;SDS011;16776;50.958;10.994;2023-05-07T02:51:38;9.95;;;6.55;;
29906;SDS011;16776;50.958;10.994;2023-05-07T02:54:05;11.27;;;5.97;;
29906;SDS011;16776;50.958;10.994;2023-05-07T02:56:31;13.05;;;6.85;;
29906;SDS011;16776;50.958;10.994;2023-05-07T02:58:58;12.93;;;7.25;;
29906;SDS011;16776;50.958;10.994;2023-05-07T03:01:25;12.68;;;7.93;;
29906;SDS011;16776;50.958;10.994;2023-05-07T03:03:51;13.00;;;7.57;;
29906;SDS011;16776;50.958;10.994;2023-05-07T03:06:19;11.32;;;7.40;;
29906;SDS011;16776;50.958;10.994;2023-05-07T03:08:45;10.68;;;6.68;;
29906;SDS011;16776;50.958;10.994;2023-05-07T03:11:12;9.20;;;6.68;;
29906;SDS011;16776;50.958;10.994;2023-05-07T03:13:39;10.15;;;6.57;;
29906;SDS011;16776;50.958;10.994;2023-05-07T03:16:06;11.23;;;6.70;;
29906;SDS011;16776;50.958;10.994;2023-05-07T03:18:34;10.70;;;6.63;;
29906;SDS011;16776;50.958;10.994;2023-05-07T03:21:00;10.88;;;7.45;;
29906;SDS011;16776;50.958;10.994;2023-05-07T03:23:28;10.70;;;7.28;;
29906;SDS011;16776;50.958;10.994;2023-05-07T03:25:55;11.05;;;7.50;;
29906;SDS011;16776;50.958;10.994;2023-05-07T03:28:21;12.25;;;7.80;;
29906;SDS011;16776;50.958;10.994;2023-05-07T03:30:48;12.30;;;7.45;;
29906;SDS011;16776;50.958;10.994;2023-05-07T03:33:15;13.60;;;8.52;;
29906;SDS011;16776;50.958;10.994;2023-05-07T03:35:42;10.68;;;6.85;;
29906;SDS011;16776;50.958;10.994;2023-05-07T03:38:08;10.68;;;7.18;;
29906;SDS011;16776;50.958;10.994;2023-05-07T03:40:36;10.15;;;6.63;;
29906;SDS011;16776;50.958;10.994;2023-05-07T03:43:03;11.38;;;6.63;;
29906;SDS011;16776;50.958;10.994;2023-05-07T03:45:29;10.82;;;7.22;;
29906;SDS011;16776;50.958;10.994;2023-05-07T03:47:56;12.32;;;7.95;;
29906;SDS011;16776;50.958;10.994;2023-05-07T03:50:22;12.65;;;8.07;;
29906;SDS011;16776;50.958;10.994;2023-05-07T03:52:49;10.77;;;7.07;;
29906;SDS011;16776;50.958;10.994;2023-05-07T03:55:15;10.90;;;6.50;;
29906;SDS011;16776;50.958;10.994;2023-05-07T03:57:44;11.75;;;6.22;;
29906;SDS011;16776;50.958;10.994;2023-05-07T04:00:11;9.50;;;5.80;;
29906;SDS011;16776;50.958;10.994;2023-05-07T04:02:38;9.50;;;5.85;;
29906;SDS011;16776;50.958;10.994;2023-05-07T04:05:05;10.00;;;6.05;;
29906;SDS011;16776;50.958;10.994;2023-05-07T04:07:32;10.95;;;7.03;;
29906;SDS011;16776;50.958;10.994;2023-05-07T04:09:58;10.23;;;6.30;;
29906;SDS011;16776;50.958;10.994;2023-05-07T04:12:27;8.93;;;5.57;;
29906;SDS011;16776;50.958;10.994;2023-05-07T04:14:55;8.48;;;5.78;;
29906;SDS011;16776;50.958;10.994;2023-05-07T04:17:21;9.60;;;5.97;;
29906;SDS011;16776;50.958;10.994;2023-05-07T04:19:48;10.10;;;6.60;;
29906;SDS011;16776;50.958;10.994;2023-05-07T04:22:14;9.23;;;6.07;;
29906;SDS011;16776;50.958;10.994;2023-05-07T04:24:41;10.35;;;5.95;;
29906;SDS011;16776;50.958;10.994;2023-05-07T04:27:08;8.68;;;6.10;;
29906;SDS011;16776;50.958;10.994;2023-05-07T04:29:34;11.35;;;6.82;;
29906;SDS011;16776;50.958;10.994;2023-05-07T04:32:02;8.63;;;5.07;;
29906;SDS011;16776;50.958;10.994;2023-05-07T04:34:29;10.93;;;6.50;;
29906;SDS011;16776;50.958;10.994;2023-05-07T04:36:58;11.63;;;7.07;;
29906;SDS011;16776;50.958;10.994;2023-05-07T04:39:25;8.70;;;5.72;;
29906;SDS011;16776;50.958;10.994;2023-05-07T04:41:52;8.25;;;5.75;;
29906;SDS011;16776;50.958;10.994;2023-05-07T04:44:18;10.02;;;6.28;;
29906;SDS011;16776;50.958;10.994;2023-05-07T04:46:45;9.38;;;6.07;;
29906;SDS011;16776;50.958;10.994;2023-05-07T04:49:13;8.38;;;5.32;;
29906;SDS011;16776;50.958;10.994;2023-05-07T04:51:40;8.93;;;5.18;;
29906;SDS011;16776;50.958;10.994;2023-05-07T04:54:07;8.30;;;5.07;;
29906;SDS011;16776;50.958;10.994;2023-05-07T04:56:34;7.15;;;4.60;;
29906;SDS011;16776;50.958;10.994;2023-05-07T04:59:01;7.60;;;4.78;;
29906;SDS011;16776;50.958;10.994;2023-05-07T05:01:27;6.95;;;4.28;;
29906;SDS011;16776;50.958;10.994;2023-05-07T05:03:54;7.97;;;4.63;;
29906;SDS011;16776;50.958;10.994;2023-05-07T05:06:22;6.85;;;4.85;;
29906;SDS011;16776;50.958;10.994;2023-05-07T05:08:48;6.80;;;4.40;;
29906;SDS011;16776;50.958;10.994;2023-05-07T05:11:15;7.25;;;4.82;;
29906;SDS011;16776;50.958;10.994;2023-05-07T05:13:41;8.43;;;5.00;;
29906;SDS011;16776;50.958;10.994;2023-05-07T05:16:08;5.20;;;3.60;;
29906;SDS011;16776;50.958;10.994;2023-05-07T05:18:35;5.88;;;4.18;;
29906;SDS011;16776;50.958;10.994;2023-05-07T05:21:02;5.68;;;4.05;;
29906;SDS011;16776;50.958;10.994;2023-05-07T05:23:30;6.28;;;3.35;;
29906;SDS011;16776;50.958;10.994;2023-05-07T05:25:56;5.20;;;3.67;;
29906;SDS011;16776;50.958;10.994;2023-05-07T05:28:23;6.85;;;4.20;;
29906;SDS011;16776;50.958;10.994;2023-05-07T05:30:50;5.03;;;3.80;;
29906;SDS011;16776;50.958;10.994;2023-05-07T05:33:16;5.32;;;3.72;;
29906;SDS011;16776;50.958;10.994;2023-05-07T05:35:43;4.80;;;4.13;;
29906;SDS011;16776;50.958;10.994;2023-05-07T05:38:09;5.15;;;3.78;;
29906;SDS011;16776;50.958;10.994;2023-05-07T05:40:40;4.82;;;3.30;;
29906;SDS011;16776;50.958;10.994;2023-05-07T05:43:07;6.00;;;4.30;;
29906;SDS011;16776;50.958;10.994;2023-05-07T05:45:33;6.78;;;4.47;;
29906;SDS011;16776;50.958;10.994;2023-05-07T05:48:02;4.05;;;3.25;;
29906;SDS011;16776;50.958;10.994;2023-05-07T05:50:29;5.10;;;3.95;;
29906;SDS011;16776;50.958;10.994;2023-05-07T05:52:56;7.03;;;4.53;;
29906;SDS011;16776;50.958;10.994;2023-05-07T05:55:22;5.90;;;4.78;;
29906;SDS011;16776;50.958;10.994;2023-05-07T05:57:51;7.13;;;5.22;;
29906;SDS011;16776;50.958;10.994;2023-05-07T06:00:17;6.63;;;5.28;;
29906;SDS011;16776;50.958;10.994;2023-05-07T06:02:47;6.10;;;4.65;;
29906;SDS011;16776;50.958;10.994;2023-05-07T06:05:14;6.60;;;4.68;;
29906;SDS011;16776;50.958;10.994;2023-05-07T06:07:41;6.82;;;5.00;;
29906;SDS011;16776;50.958;10.994;2023-05-07T06:10:07;7.57;;;5.22;;
29906;SDS011;16776;50.958;10.994;2023-05-07T06:12:34;7.93;;;5.45;;
29906;SDS011;16776;50.958;10.994;2023-05-07T06:15:02;9.63;;;5.43;;
29906;SDS011;16776;50.958;10.994;2023-05-07T06:17:29;7.70;;;4.28;;
29906;SDS011;16776;50.958;10.994;2023-05-07T06:19:56;7.65;;;5.78;;
29906;SDS011;16776;50.958;10.994;2023-05-07T06:22:23;7.88;;;5.70;;
29906;SDS011;16776;50.958;10.994;2023-05-07T06:24:49;7.47;;;5.28;;
29906;SDS011;16776;50.958;10.994;2023-05-07T06:27:16;7.65;;;5.10;;
29906;SDS011;16776;50.958;10.994;2023-05-07T06:29:42;8.43;;;5.15;;
29906;SDS011;16776;50.958;10.994;2023-05-07T06:32:11;7.72;;;5.47;;
29906;SDS011;16776;50.958;10.994;2023-05-07T06:34:38;6.65;;;4.90;;
29906;SDS011;16776;50.958;10.994;2023-05-07T06:37:06;6.47;;;4.32;;
29906;SDS011;16776;50.958;10.994;2023-05-07T06:39:33;6.80;;;4.15;;
29906;SDS011;16776;50.958;10.994;2023-05-07T06:42:00;7.32;;;4.75;;
29906;SDS011;16776;50.958;10.994;2023-05-07T06:44:27;10.23;;;5.30;;
29906;SDS011;16776;50.958;10.994;2023-05-07T06:46:53;6.55;;;4.63;;
29906;SDS011;16776;50.958;10.994;2023-05-07T06:49:21;6.50;;;3.40;;
29906;SDS011;16776;50.958;10.994;2023-05-07T06:51:48;7.68;;;3.83;;
29906;SDS011;16776;50.958;10.994;2023-05-07T06:54:14;7.68;;;4.78;;
29906;SDS011;16776;50.958;10.994;2023-05-07T06:56:41;6.85;;;3.97;;
29906;SDS011;16776;50.958;10.994;2023-05-07T06:59:07;4.40;;;3.35;;
29906;SDS011;16776;50.958;10.994;2023-05-07T07:01:34;4.30;;;3.10;;
29906;SDS011;16776;50.958;10.994;2023-05-07T07:04:01;5.03;;;3.63;;
29906;SDS011;16776;50.958;10.994;2023-05-07T07:06:28;6.03;;;4.00;;
29906;SDS011;16776;50.958;10.994;2023-05-07T07:08:56;6.53;;;4.05;;
29906;SDS011;16776;50.958;10.994;2023-05-07T07:11:23;4.80;;;3.75;;
29906;SDS011;16776;50.958;10.994;2023-05-07T07:13:51;6.68;;;3.85;;
29906;SDS011;16776;50.958;10.994;2023-05-07T07:16:19;4.72;;;3.50;;
29906;SDS011;16776;50.958;10.994;2023-05-07T07:18:46;5.22;;;4.28;;
29906;SDS011;16776;50.958;10.994;2023-05-07T07:21:12;4.90;;;3.10;;
29906;SDS011;16776;50.958;10.994;2023-05-07T07:23:40;6.75;;;4.18;;
29906;SDS011;16776;50.958;10.994;2023-05-07T07:26:07;5.13;;;3.60;;
29906;SDS011;16776;50.958;10.994;2023-05-07T07:28:33;3.47;;;2.92;;
29906;SDS011;16776;50.958;10.994;2023-05-07T07:31:00;3.60;;;2.83;;
29906;SDS011;16776;50.958;10.994;2023-05-07T07:33:26;3.80;;;2.95;;
29906;SDS011;16776;50.958;10.994;2023-05-07T07:35:53;4.90;;;3.20;;
29906;SDS011;16776;50.958;10.994;2023-05-07T07:38:21;4.10;;;2.65;;
29906;SDS011;16776;50.958;10.994;2023-05-07T07:40:49;3.53;;;2.80;;
29906;SDS011;16776;50.958;10.994;2023-05-07T07:43:16;4.10;;;3.22;;
29906;SDS011;16776;50.958;10.994;2023-05-07T07:45:42;5.82;;;3.67;;
29906;SDS011;16776;50.958;10.994;2023-05-07T07:48:09;3.50;;;3.15;;
29906;SDS011;16776;50.958;10.994;2023-05-07T07:50:35;5.03;;;3.60;;
29906;SDS011;16776;50.958;10.994;2023-05-07T07:53:02;3.72;;;3.05;;
29906;SDS011;16776;50.958;10.994;2023-05-07T07:55:28;5.50;;;3.78;;
29906;SDS011;16776;50.958;10.994;2023-05-07T07:57:57;5.35;;;3.55;;
29906;SDS011;16776;50.958;10.994;2023-05-07T08:00:24;5.20;;;3.08;;
29906;SDS011;16776;50.958;10.994;2023-05-07T08:02:50;4.88;;;3.35;;
29906;SDS011;16776;50.958;10.994;2023-05-07T08:05:17;5.50;;;3.53;;
29906;SDS011;16776;50.958;10.994;2023-05-07T08:07:47;5.47;;;3.75;;
29906;SDS011;16776;50.958;10.994;2023-05-07T08:12:46;5.03;;;3.47;;
29906;SDS011;16776;50.958;10.994;2023-05-07T08:15:14;5.10;;;3.88;;
29906;SDS011;16776;50.958;10.994;2023-05-07T08:17:41;4.60;;;3.75;;
29906;SDS011;16776;50.958;10.994;2023-05-07T08:20:10;3.90;;;2.80;;
29906;SDS011;16776;50.958;10.994;2023-05-07T08:22:37;4.50;;;3.20;;
29906;SDS011;16776;50.958;10.994;2023-05-07T08:25:04;4.22;;;3.25;;
29906;SDS011;16776;50.958;10.994;2023-05-07T08:27:31;5.18;;;3.97;;
29906;SDS011;16776;50.958;10.994;2023-05-07T08:29:57;4.30;;;3.63;;
29906;SDS011;16776;50.958;10.994;2023-05-07T08:32:25;3.85;;;3.08;;
29906;SDS011;16776;50.958;10.994;2023-05-07T08:34:52;4.53;;;3.17;;
29906;SDS011;16776;50.958;10.994;2023-05-07T08:37:22;5.80;;;3.83;;
29906;SDS011;16776;50.958;10.994;2023-05-07T08:39:49;4.82;;;3.72;;
29906;SDS011;16776;50.958;10.994;2023-05-07T08:42:15;4.00;;;3.10;;
29906;SDS011;16776;50.958;10.994;2023-05-07T08:44:44;4.95;;;3.90;;
29906;SDS011;16776;50.958;10.994;2023-05-07T08:47:12;5.53;;;3.53;;
29906;SDS011;16776;50.958;10.994;2023-05-07T08:49:40;4.60;;;3.47;;
29906;SDS011;16776;50.958;10.994;2023-05-07T08:52:06;4.20;;;3.45;;
29906;SDS011;16776;50.958;10.994;2023-05-07T08:54:33;5.95;;;3.22;;
29906;SDS011;16776;50.958;10.994;2023-05-07T08:57:00;5.22;;;3.70;;
29906;SDS011;16776;50.958;10.994;2023-05-07T08:59:27;4.75;;;3.55;;
29906;SDS011;16776;50.958;10.994;2023-05-07T09:01:55;6.00;;;4.30;;
29906;SDS011;16776;50.958;10.994;2023-05-07T09:04:22;7.05;;;4.85;;
29906;SDS011;16776;50.958;10.994;2023-05-07T09:06:50;5.80;;;4.47;;
29906;SDS011;16776;50.958;10.994;2023-05-07T09:09:16;6.57;;;4.40;;
29906;SDS011;16776;50.958;10.994;2023-05-07T09:11:44;4.93;;;3.85;;
29906;SDS011;16776;50.958;10.994;2023-05-07T09:14:11;4.82;;;3.70;;
29906;SDS011;16776;50.958;10.994;2023-05-07T09:16:37;5.63;;;4.07;;
29906;SDS011;16776;50.958;10.994;2023-05-07T09:19:04;4.97;;;3.58;;
29906;SDS011;16776;50.958;10.994;2023-05-07T09:21:31;5.43;;;4.03;;
29906;SDS011;16776;50.958;10.994;2023-05-07T09:23:59;5.43;;;4.25;;
29906;SDS011;16776;50.958;10.994;2023-05-07T09:26:25;6.80;;;4.60;;
29906;SDS011;16776;50.958;10.994;2023-05-07T09:28:53;6.53;;;4.88;;
29906;SDS011;16776;50.958;10.994;2023-05-07T09:31:19;6.97;;;4.85;;
29906;SDS011;16776;50.958;10.994;2023-05-07T09:33:48;6.20;;;4.63;;
29906;SDS011;16776;50.958;10.994;2023-05-07T09:36:14;5.55;;;4.43;;
29906;SDS011;16776;50.958;10.994;2023-05-07T09:38:42;6.05;;;3.90;;
29906;SDS011;16776;50.958;10.994;2023-05-07T09:41:11;7.20;;;4.40;;
29906;SDS011;16776;50.958;10.994;2023-05-07T09:43:38;5.88;;;4.47;;
29906;SDS011;16776;50.958;10.994;2023-05-07T09:46:06;5.05;;;3.88;;
29906;SDS011;16776;50.958;10.994;2023-05-07T09:48:35;7.35;;;5.25;;
29906;SDS011;16776;50.958;10.994;2023-05-07T09:51:05;7.22;;;4.50;;
29906;SDS011;16776;50.958;10.994;2023-05-07T09:53:37;6.65;;;4.80;;
29906;SDS011;16776;50.958;10.994;2023-05-07T09:56:06;6.55;;;5.03;;
29906;SDS011;16776;50.958;10.994;2023-05-07T09:58:34;6.18;;;5.22;;
29906;SDS011;16776;50.958;10.994;2023-05-07T10:01:03;9.45;;;5.15;;
29906;SDS011;16776;50.958;10.994;2023-05-07T10:03:30;7.07;;;4.95;;
29906;SDS011;16776;50.958;10.994;2023-05-07T10:06:01;6.07;;;4.82;;
29906;SDS011;16776;50.958;10.994;2023-05-07T10:08:30;6.88;;;5.63;;
29906;SDS011;16776;50.958;10.994;2023-05-07T10:10:59;5.05;;;4.18;;
29906;SDS011;16776;50.958;10.994;2023-05-07T10:13:27;5.00;;;4.15;;
29906;SDS011;16776;50.958;10.994;2023-05-07T10:15:57;5.80;;;4.63;;
29906;SDS011;16776;50.958;10.994;2023-05-07T10:18:24;5.60;;;4.00;;
29906;SDS011;16776;50.958;10.994;2023-05-07T10:20:54;4.72;;;3.90;;
29906;SDS011;16776;50.958;10.994;2023-05-07T10:23:31;5.45;;;4.53;;
29906;SDS011;16776;50.958;10.994;2023-05-07T10:25:58;4.55;;;3.95;;
29906;SDS011;16776;50.958;10.994;2023-05-07T10:28:28;4.25;;;3.75;;
29906;SDS011;16776;50.958;10.994;2023-05-07T10:31:01;5.13;;;4.20;;
29906;SDS011;16776;50.958;10.994;2023-05-07T10:33:38;5.07;;;3.63;;
29906;SDS011;16776;50.958;10.994;2023-05-07T10:36:05;4.47;;;3.88;;
29906;SDS011;16776;50.958;10.994;2023-05-07T10:38:33;4.80;;;3.90;;
29906;SDS011;16776;50.958;10.994;2023-05-07T10:41:00;6.03;;;4.28;;
29906;SDS011;16776;50.958;10.994;2023-05-07T10:43:37;6.72;;;4.82;;
29906;SDS011;16776;50.958;10.994;2023-05-07T10:46:10;4.63;;;3.90;;
29906;SDS011;16776;50.958;10.994;2023-05-07T10:51:38;4.95;;;4.45;;
29906;SDS011;16776;50.958;10.994;2023-05-07T10:54:20;5.45;;;4.25;;
29906;SDS011;16776;50.958;10.994;2023-05-07T10:56:48;6.28;;;4.05;;
29906;SDS011;16776;50.958;10.994;2023-05-07T10:59:37;4.32;;;3.85;;
29906;SDS011;16776;50.958;10.994;2023-05-07T11:02:09;5.53;;;4.30;;
29906;SDS011;16776;50.958;10.994;2023-05-07T11:04:46;3.73;;;3.27;;
29906;SDS011;16776;50.958;10.994;2023-05-07T11:07:45;4.22;;;3.83;;
29906;SDS011;16776;50.958;10.994;2023-05-07T11:10:23;5.20;;;3.92;;
29906;SDS011;16776;50.958;10.994;2023-05-07T11:13:09;4.13;;;3.38;;
29906;SDS011;16776;50.958;10.994;2023-05-07T11:15:44;3.67;;;3.13;;
29906;SDS011;16776;50.958;10.994;2023-05-07T11:18:14;6.00;;;4.13;;
29906;SDS011;16776;50.958;10.994;2023-05-07T11:20:46;5.25;;;4.38;;
29906;SDS011;16776;50.958;10.994;2023-05-07T11:26:21;5.25;;;3.47;;
29906;SDS011;16776;50.958;10.994;2023-05-07T11:28:53;6.00;;;4.68;;
29906;SDS011;16776;50.958;10.994;2023-05-07T11:31:25;6.95;;;4.00;;
29906;SDS011;16776;50.958;10.994;2023-05-07T11:33:55;6.00;;;5.03;;
29906;SDS011;16776;50.958;10.994;2023-05-07T11:36:22;4.30;;;3.90;;
29906;SDS011;16776;50.958;10.994;2023-05-07T11:38:52;6.47;;;5.15;;
29906;SDS011;16776;50.958;10.994;2023-05-07T11:41:19;6.10;;;4.57;;
29906;SDS011;16776;50.958;10.994;2023-05-07T11:43:55;5.65;;;4.18;;
29906;SDS011;16776;50.958;10.994;2023-05-07T11:46:22;6.18;;;4.40;;
29906;SDS011;16776;50.958;10.994;2023-05-07T11:48:49;4.88;;;4.18;;
29906;SDS011;16776;50.958;10.994;2023-05-07T11:51:20;4.85;;;3.72;;
29906;SDS011;16776;50.958;10.994;2023-05-07T11:53:48;6.60;;;4.65;;
29906;SDS011;16776;50.958;10.994;2023-05-07T11:56:17;8.23;;;4.63;;
29906;SDS011;16776;50.958;10.994;2023-05-07T11:58:47;4.25;;;3.60;;
29906;SDS011;16776;50.958;10.994;2023-05-07T12:01:14;6.43;;;4.18;;
29906;SDS011;16776;50.958;10.994;2023-05-07T12:03:44;4.82;;;4.15;;
29906;SDS011;16776;50.958;10.994;2023-05-07T12:06:13;5.72;;;4.53;;
29906;SDS011;16776;50.958;10.994;2023-05-07T12:08:43;5.78;;;4.28;;
29906;SDS011;16776;50.958;10.994;2023-05-07T12:11:13;5.55;;;4.30;;
29906;SDS011;16776;50.958;10.994;2023-05-07T12:13:41;4.95;;;4.03;;
29906;SDS011;16776;50.958;10.994;2023-05-07T12:16:11;5.55;;;3.78;;
29906;SDS011;16776;50.958;10.994;2023-05-07T12:18:38;4.10;;;3.20;;
29906;SDS011;16776;50.958;10.994;2023-05-07T12:21:08;4.82;;;3.83;;
29906;SDS011;16776;50.958;10.994;2023-05-07T12:23:36;5.72;;;4.90;;
29906;SDS011;16776;50.958;10.994;2023-05-07T12:26:15;4.15;;;3.47;;
29906;SDS011;16776;50.958;10.994;2023-05-07T12:28:42;4.22;;;3.83;;
29906;SDS011;16776;50.958;10.994;2023-05-07T12:31:08;5.72;;;3.90;;
29906;SDS011;16776;50.958;10.994;2023-05-07T12:33:35;4.75;;;3.50;;
29906;SDS011;16776;50.958;10.994;2023-05-07T12:36:03;4.07;;;3.20;;
29906;SDS011;16776;50.958;10.994;2023-05-07T12:38:36;4.72;;;3.50;;
29906;SDS011;16776;50.958;10.994;2023-05-07T12:41:05;5.13;;;3.60;;
29906;SDS011;16776;50.958;10.994;2023-05-07T12:43:33;5.53;;;4.10;;
29906;SDS011;16776;50.958;10.994;2023-05-07T12:46:00;4.65;;;3.80;;
29906;SDS011;16776;50.958;10.994;2023-05-07T12:48:28;4.10;;;3.47;;
29906;SDS011;16776;50.958;10.994;2023-05-07T12:50:55;5.65;;;3.47;;
29906;SDS011;16776;50.958;10.994;2023-05-07T12:53:24;3.80;;;3.40;;
29906;SDS011;16776;50.958;10.994;2023-05-07T12:55:52;5.10;;;3.40;;
29906;SDS011;16776;50.958;10.994;2023-05-07T12:58:23;4.45;;;3.92;;
29906;SDS011;16776;50.958;10.994;2023-05-07T13:00:51;4.50;;;3.40;;
29906;SDS011;16776;50.958;10.994;2023-05-07T13:03:22;5.40;;;3.90;;
29906;SDS011;16776;50.958;10.994;2023-05-07T13:05:50;4.50;;;3.40;;
29906;SDS011;16776;50.958;10.994;2023-05-07T13:08:23;5.38;;;4.13;;
29906;SDS011;16776;50.958;10.994;2023-05-07T13:10:54;4.95;;;3.60;;
29906;SDS011;16776;50.958;10.994;2023-05-07T13:13:24;5.60;;;4.63;;
29906;SDS011;16776;50.958;10.994;2023-05-07T13:15:51;5.28;;;4.03;;
29906;SDS011;16776;50.958;10.994;2023-05-07T13:18:18;3.40;;;3.03;;
29906;SDS011;16776;50.958;10.994;2023-05-07T13:20:47;3.70;;;3.38;;
29906;SDS011;16776;50.958;10.994;2023-05-07T13:23:17;4.68;;;3.78;;
29906;SDS011;16776;50.958;10.994;2023-05-07T13:25:43;4.70;;;4.15;;
29906;SDS011;16776;50.958;10.994;2023-05-07T13:28:10;4.85;;;3.40;;
29906;SDS011;16776;50.958;10.994;2023-05-07T13:30:38;2.97;;;2.72;;
29906;SDS011;16776;50.958;10.994;2023-05-07T13:33:06;3.85;;;3.15;;
29906;SDS011;16776;50.958;10.994;2023-05-07T13:35:33;3.38;;;3.08;;
29906;SDS011;16776;50.958;10.994;2023-05-07T13:38:00;4.00;;;3.45;;
29906;SDS011;16776;50.958;10.994;2023-05-07T13:40:26;4.68;;;4.00;;
29906;SDS011;16776;50.958;10.994;2023-05-07T13:42:53;4.60;;;3.50;;
29906;SDS011;16776;50.958;10.994;2023-05-07T13:45:19;4.18;;;3.28;;
29906;SDS011;16776;50.958;10.994;2023-05-07T13:47:48;3.60;;;3.30;;
29906;SDS011;16776;50.958;10.994;2023-05-07T13:50:14;5.35;;;3.85;;
29906;SDS011;16776;50.958;10.994;2023-05-07T13:52:42;5.10;;;3.75;;
29906;SDS011;16776;50.958;10.994;2023-05-07T13:55:15;2.72;;;2.53;;
29906;SDS011;16776;50.958;10.994;2023-05-07T13:57:42;3.30;;;2.75;;
29906;SDS011;16776;50.958;10.994;2023-05-07T14:00:09;2.78;;;2.55;;
29906;SDS011;16776;50.958;10.994;2023-05-07T14:02:36;4.05;;;2.90;;
29906;SDS011;16776;50.958;10.994;2023-05-07T14:05:04;3.13;;;2.83;;
29906;SDS011;16776;50.958;10.994;2023-05-07T14:07:31;3.10;;;2.53;;
29906;SDS011;16776;50.958;10.994;2023-05-07T14:09:58;2.78;;;2.58;;
29906;SDS011;16776;50.958;10.994;2023-05-07T14:12:25;3.28;;;2.90;;
29906;SDS011;16776;50.958;10.994;2023-05-07T14:14:51;2.65;;;2.45;;
29906;SDS011;16776;50.958;10.994;2023-05-07T14:17:18;3.40;;;2.75;;
29906;SDS011;16776;50.958;10.994;2023-05-07T14:19:45;3.95;;;3.53;;
29906;SDS011;16776;50.958;10.994;2023-05-07T14:22:14;3.22;;;2.85;;
29906;SDS011;16776;50.958;10.994;2023-05-07T14:24:40;3.53;;;2.83;;
29906;SDS011;16776;50.958;10.994;2023-05-07T14:27:07;2.85;;;2.58;;
29906;SDS011;16776;50.958;10.994;2023-05-07T14:29:33;3.40;;;3.10;;
29906;SDS011;16776;50.958;10.994;2023-05-07T14:32:01;4.07;;;2.60;;
29906;SDS011;16776;50.958;10.994;2023-05-07T14:34:28;3.70;;;3.30;;
29906;SDS011;16776;50.958;10.994;2023-05-07T14:36:54;4.15;;;2.97;;
29906;SDS011;16776;50.958;10.994;2023-05-07T14:39:22;3.28;;;2.88;;
29906;SDS011;16776;50.958;10.994;2023-05-07T14:41:50;3.03;;;2.80;;
29906;SDS011;16776;50.958;10.994;2023-05-07T14:44:17;2.88;;;2.50;;